createdAt,value
2019-03-23T00:00:06.507Z,89.38
2019-03-23T00:01:06.750Z,88.71
2019-03-23T00:02:06.923Z,89.09
2019-03-23T00:03:07.204Z,89.00
2019-03-23T00:04:07.252Z,88.81
2019-03-23T00:05:08.464Z,89.00
2019-03-23T00:06:09.623Z,88.24
2019-03-23T00:07:09.696Z,88.24
2019-03-23T00:08:07.949Z,88.24
2019-03-23T00:09:08.152Z,88.81
2019-03-23T00:10:12.111Z,88.71
2019-03-23T00:11:10.119Z,88.15
2019-03-23T00:12:08.696Z,89.09
2019-03-23T00:13:08.912Z,88.43
2019-03-23T00:14:12.638Z,88.24
2019-03-23T00:15:11.131Z,88.15
2019-03-23T00:16:09.465Z,88.24
2019-03-23T00:17:11.691Z,88.43
2019-03-23T00:18:09.830Z,88.90
2019-03-23T00:19:11.064Z,88.90
2019-03-23T00:20:12.139Z,89.09
2019-03-23T00:21:10.344Z,88.90
2019-03-23T00:22:10.558Z,89.09
2019-03-23T00:23:11.764Z,88.43
2019-03-23T00:24:13.615Z,88.90
2019-03-23T00:25:11.099Z,89.00
2019-03-23T00:26:13.389Z,88.90
2019-03-23T00:27:11.446Z,88.95
2019-03-23T00:28:13.610Z,89.14
2019-03-23T00:29:13.606Z,88.62
2019-03-23T00:30:11.939Z,87.62
2019-03-23T00:31:14.124Z,87.76
2019-03-23T00:32:12.364Z,87.43
2019-03-23T00:33:12.564Z,87.19
2019-03-23T00:34:12.764Z,87.01
2019-03-23T00:35:13.008Z,87.01
2019-03-23T00:36:13.061Z,87.19
2019-03-23T00:37:13.269Z,88.15
2019-03-23T00:38:13.454Z,87.76
2019-03-23T00:39:15.621Z,88.15
2019-03-23T00:40:13.851Z,88.71
2019-03-23T00:41:19.628Z,89.09
2019-03-23T00:42:14.199Z,89.38
2019-03-23T00:43:14.395Z,89.28
2019-03-23T00:44:16.111Z,89.57
2019-03-23T00:45:18.643Z,89.57
2019-03-23T00:46:16.610Z,89.09
2019-03-23T00:47:15.195Z,89.24
2019-03-23T00:48:15.478Z,89.09
2019-03-23T00:49:15.637Z,89.00
2019-03-23T00:50:17.613Z,89.00
2019-03-23T00:51:15.960Z,89.81
2019-03-23T00:52:16.080Z,89.62
2019-03-23T00:53:18.112Z,89.53
2019-03-23T00:54:16.447Z,89.53
2019-03-23T00:55:16.610Z,89.43
2019-03-23T00:56:16.774Z,89.81
2019-03-23T00:57:18.619Z,89.05
2019-03-23T00:58:17.185Z,88.95
2019-03-23T00:59:19.114Z,89.05
2019-03-23T01:00:19.111Z,88.67
2019-03-23T01:01:19.614Z,89.14
2019-03-23T01:02:17.816Z,89.14
2019-03-23T01:03:18.022Z,88.95
2019-03-23T01:04:18.219Z,89.53
2019-03-23T01:05:18.475Z,89.14
2019-03-23T01:06:18.567Z,89.05
2019-03-23T01:07:18.856Z,88.76
2019-03-23T01:08:18.975Z,88.95
2019-03-23T01:09:24.027Z,88.48
2019-03-23T01:10:19.359Z,88.86
2019-03-23T01:11:19.576Z,88.57
2019-03-23T01:12:21.609Z,88.95
2019-03-23T01:13:19.956Z,88.86
2019-03-23T01:14:21.167Z,88.86
2019-03-23T01:15:24.135Z,88.76
2019-03-23T01:16:20.593Z,89.24
2019-03-23T01:17:22.616Z,88.29
2019-03-23T01:18:22.609Z,87.53
2019-03-23T01:19:21.052Z,87.91
2019-03-23T01:20:23.113Z,88.39
2019-03-23T01:21:22.453Z,88.48
2019-03-23T01:22:21.655Z,88.48
2019-03-23T01:23:23.610Z,88.01
2019-03-23T01:24:23.610Z,88.43
2019-03-23T01:25:24.112Z,89.05
2019-03-23T01:26:22.309Z,88.81
2019-03-23T01:27:22.558Z,89.24
2019-03-23T01:28:22.766Z,89.76
2019-03-23T01:29:22.841Z,90.00
2019-03-23T01:30:23.048Z,89.62
2019-03-23T01:31:23.244Z,89.86
2019-03-23T01:32:23.453Z,90.00
2019-03-23T01:33:23.662Z,89.95
2019-03-23T01:34:25.635Z,89.48
2019-03-23T01:35:29.610Z,89.10
2019-03-23T01:36:24.175Z,88.72
2019-03-23T01:37:24.375Z,88.62
2019-03-23T01:38:24.586Z,88.81
2019-03-23T01:39:26.670Z,88.91
2019-03-23T01:40:26.640Z,88.53
2019-03-23T01:41:25.079Z,89.10
2019-03-23T01:42:25.264Z,89.67
2019-03-23T01:43:27.122Z,89.48
2019-03-23T01:44:26.693Z,89.29
2019-03-23T01:45:27.608Z,89.48
2019-03-23T01:46:26.080Z,88.81
2019-03-23T01:47:28.107Z,89.00
2019-03-23T01:48:27.459Z,88.81
2019-03-23T01:49:28.656Z,88.24
2019-03-23T01:50:28.612Z,88.43
2019-03-23T01:51:28.608Z,87.58
2019-03-23T01:52:27.190Z,88.01
2019-03-23T01:53:29.119Z,88.62
2019-03-23T01:54:29.111Z,88.43
2019-03-23T01:55:29.611Z,88.53
2019-03-23T01:56:27.819Z,88.29
2019-03-23T01:57:33.651Z,88.10
2019-03-23T01:58:28.252Z,88.20
2019-03-23T01:59:28.356Z,88.29
2019-03-23T02:00:28.564Z,88.48
2019-03-23T02:01:32.609Z,88.87
2019-03-23T02:02:30.641Z,88.96
2019-03-23T02:03:30.648Z,88.68
2019-03-23T02:04:29.232Z,89.06
2019-03-23T02:05:29.419Z,89.72
2019-03-23T02:06:29.649Z,88.77
2019-03-23T02:07:29.851Z,88.58
2019-03-23T02:08:30.047Z,88.20
2019-03-23T02:09:32.156Z,88.58
2019-03-23T02:10:30.395Z,88.01
2019-03-23T02:11:34.107Z,88.20
2019-03-23T02:12:32.649Z,87.45
2019-03-23T02:13:32.635Z,88.39
2019-03-23T02:14:32.613Z,88.20
2019-03-23T02:15:31.304Z,87.92
2019-03-23T02:16:33.118Z,88.10
2019-03-23T02:17:31.693Z,88.20
2019-03-23T02:18:33.610Z,88.01
2019-03-23T02:19:32.064Z,87.82
2019-03-23T02:20:34.110Z,88.96
2019-03-23T02:21:32.440Z,89.43
2019-03-23T02:22:32.656Z,89.53
2019-03-23T02:23:34.662Z,89.72
2019-03-23T02:24:34.611Z,89.72
2019-03-23T02:25:33.182Z,89.06
2019-03-23T02:26:35.113Z,88.96
2019-03-23T02:27:35.160Z,88.96
2019-03-23T02:28:33.710Z,89.15
2019-03-23T02:29:33.925Z,89.15
2019-03-23T02:30:36.162Z,89.15
2019-03-23T02:31:34.307Z,88.58
2019-03-23T02:32:34.512Z,88.87
2019-03-23T02:33:34.717Z,88.77
2019-03-23T02:34:34.921Z,88.48
2019-03-23T02:35:37.117Z,88.48
2019-03-23T02:36:37.112Z,88.39
2019-03-23T02:37:37.112Z,88.20
2019-03-23T02:38:37.111Z,88.20
2019-03-23T02:39:37.630Z,88.29
2019-03-23T02:40:35.804Z,89.06
2019-03-23T02:41:36.036Z,88.77
2019-03-23T02:42:36.220Z,89.15
2019-03-23T02:43:37.352Z,88.68
2019-03-23T02:44:36.593Z,89.15
2019-03-23T02:45:38.610Z,88.77
2019-03-23T02:46:36.958Z,88.87
2019-03-23T02:47:37.148Z,89.06
2019-03-23T02:48:37.351Z,89.06
2019-03-23T02:49:39.153Z,89.06
2019-03-23T02:50:37.696Z,88.96
2019-03-23T02:51:39.718Z,88.77
2019-03-23T02:52:39.637Z,88.39
2019-03-23T02:53:40.111Z,87.73
2019-03-23T02:54:38.334Z,87.45
2019-03-23T02:55:40.131Z,87.45
2019-03-23T02:56:40.625Z,86.97
2019-03-23T02:57:38.851Z,87.16
2019-03-23T02:58:40.618Z,87.73
2019-03-23T02:59:40.215Z,87.63
2019-03-23T03:00:41.121Z,88.20
2019-03-23T03:01:41.112Z,88.29
2019-03-23T03:02:39.701Z,88.20
2019-03-23T03:03:41.611Z,88.39
2019-03-23T03:04:41.613Z,88.39
2019-03-23T03:05:40.220Z,89.06
2019-03-23T03:06:40.297Z,88.96
2019-03-23T03:07:43.242Z,89.15
2019-03-23T03:08:40.706Z,88.77
2019-03-23T03:09:52.843Z,88.92
2019-03-23T03:10:41.057Z,88.73
2019-03-23T03:11:41.247Z,88.82
2019-03-23T03:12:43.134Z,88.73
2019-03-23T03:13:41.675Z,88.92
2019-03-23T03:14:43.631Z,89.01
2019-03-23T03:15:43.614Z,89.48
2019-03-23T03:16:45.627Z,89.86
2019-03-23T03:17:46.119Z,89.58
2019-03-23T03:18:43.323Z,89.39
2019-03-23T03:19:44.115Z,89.77
2019-03-23T03:20:42.691Z,89.58
2019-03-23T03:21:42.886Z,89.01
2019-03-23T03:22:43.071Z,88.54
2019-03-23T03:23:47.113Z,88.44
2019-03-23T03:24:43.314Z,88.25
2019-03-23T03:25:45.139Z,87.77
2019-03-23T03:26:45.613Z,87.21
2019-03-23T03:27:43.803Z,87.59
2019-03-23T03:28:44.051Z,87.12
2019-03-23T03:29:44.250Z,87.21
2019-03-23T03:30:44.443Z,87.68
2019-03-23T03:31:46.134Z,87.59
2019-03-23T03:32:44.819Z,87.97
2019-03-23T03:33:46.610Z,88.44
2019-03-23T03:34:47.141Z,89.11
2019-03-23T03:35:47.110Z,89.11
2019-03-23T03:36:45.589Z,89.67
2019-03-23T03:37:55.683Z,90.15
2019-03-23T03:38:46.904Z,90.34
2019-03-23T03:39:47.621Z,90.15
2019-03-23T03:40:50.114Z,89.39
2019-03-23T03:41:46.450Z,88.73
2019-03-23T03:42:50.607Z,89.01
2019-03-23T03:43:46.818Z,89.11
2019-03-23T03:44:48.082Z,89.01
2019-03-23T03:45:47.152Z,89.29
2019-03-23T03:46:47.320Z,89.58
2019-03-23T03:47:48.412Z,90.34
2019-03-23T03:48:47.656Z,90.05
2019-03-23T03:49:47.786Z,89.67
2019-03-23T03:50:49.505Z,89.58
2019-03-23T03:51:49.616Z,89.86
2019-03-23T03:52:49.246Z,89.77
2019-03-23T03:53:48.334Z,89.58
2019-03-23T03:54:48.542Z,89.11
2019-03-23T03:55:50.609Z,89.15
2019-03-23T03:56:48.973Z,89.11
2019-03-23T03:57:52.613Z,88.92
2019-03-23T03:58:53.116Z,88.92
2019-03-23T03:59:55.189Z,88.63
2019-03-23T04:00:50.572Z,88.73
2019-03-23T04:01:49.759Z,88.54
2019-03-23T04:02:50.991Z,89.29
2019-03-23T04:03:50.130Z,88.35
2019-03-23T04:04:57.282Z,88.35
2019-03-23T04:05:52.117Z,88.35
2019-03-23T04:06:54.107Z,87.87
2019-03-23T04:07:52.121Z,87.49
2019-03-23T04:08:51.708Z,87.49
2019-03-23T04:09:50.993Z,87.59
2019-03-23T04:10:53.622Z,87.77
2019-03-23T04:11:53.107Z,88.16
2019-03-23T04:12:51.433Z,88.54
2019-03-23T04:13:56.063Z,88.44
2019-03-23T04:14:53.646Z,88.44
2019-03-23T04:15:53.617Z,88.54
2019-03-23T04:16:53.194Z,88.35
2019-03-23T04:17:53.434Z,89.34
2019-03-23T04:18:52.518Z,88.96
2019-03-23T04:19:54.619Z,88.96
2019-03-23T04:20:54.612Z,89.15
2019-03-23T04:21:53.060Z,89.15
2019-03-23T04:22:53.257Z,89.06
2019-03-23T04:23:55.148Z,89.06
2019-03-23T04:24:53.607Z,88.59
2019-03-23T04:25:55.626Z,89.15
2019-03-23T04:26:55.661Z,89.06
2019-03-23T04:27:54.145Z,89.15
2019-03-23T04:29:00.180Z,88.96
2019-03-23T04:29:58.111Z,89.06
2019-03-23T04:30:56.627Z,89.53
2019-03-23T04:31:56.637Z,89.82
2019-03-23T04:32:55.970Z,90.10
2019-03-23T04:33:55.173Z,90.10
2019-03-23T04:34:55.380Z,89.63
2019-03-23T04:35:57.118Z,89.72
2019-03-23T04:36:56.721Z,89.53
2019-03-23T04:37:55.838Z,89.34
2019-03-23T04:38:57.067Z,89.06
2019-03-23T04:39:56.149Z,88.49
2019-03-23T04:41:00.111Z,88.87
2019-03-23T04:41:56.554Z,88.40
2019-03-23T04:42:58.614Z,88.59
2019-03-23T04:43:58.621Z,88.49
2019-03-23T04:45:04.681Z,89.15
2019-03-23T04:45:59.108Z,88.96
2019-03-23T04:46:57.429Z,89.06
2019-03-23T04:47:59.610Z,89.25
2019-03-23T04:48:57.816Z,88.78
2019-03-23T04:49:59.612Z,89.25
2019-03-23T04:51:00.109Z,88.49
2019-03-23T04:52:02.110Z,88.40
2019-03-23T04:53:00.137Z,89.06
2019-03-23T04:54:06.117Z,88.68
2019-03-23T04:55:00.636Z,89.06
2019-03-23T04:56:00.643Z,89.25
2019-03-23T04:57:00.085Z,89.15
2019-03-23T04:58:01.111Z,89.06
2019-03-23T04:59:01.108Z,88.78
2019-03-23T05:00:01.121Z,89.44
2019-03-23T05:01:04.462Z,89.72
2019-03-23T05:02:03.669Z,90.01
2019-03-23T05:02:59.975Z,89.82
2019-03-23T05:04:06.143Z,89.82
2019-03-23T05:05:00.394Z,89.53
2019-03-23T05:06:01.566Z,89.82
2019-03-23T05:07:02.647Z,90.01
2019-03-23T05:08:02.655Z,89.82
2019-03-23T05:09:02.612Z,89.91
2019-03-23T05:10:03.134Z,90.20
2019-03-23T05:11:03.112Z,89.82
2019-03-23T05:12:07.579Z,90.20
2019-03-23T05:13:02.393Z,90.20
2019-03-23T05:14:03.011Z,90.67
2019-03-23T05:15:02.083Z,90.39
2019-03-23T05:16:04.213Z,90.29
2019-03-23T05:17:05.201Z,90.29
2019-03-23T05:18:02.669Z,90.01
2019-03-23T05:19:02.756Z,89.91
2019-03-23T05:20:02.952Z,90.20
2019-03-23T05:21:05.109Z,89.91
2019-03-23T05:22:03.306Z,89.91
2019-03-23T05:23:05.111Z,90.10
2019-03-23T05:24:03.795Z,89.72
2019-03-23T05:25:03.810Z,89.06
2019-03-23T05:26:04.045Z,89.53
2019-03-23T05:27:04.222Z,89.25
2019-03-23T05:28:04.430Z,89.06
2019-03-23T05:29:04.655Z,89.06
2019-03-23T05:30:04.855Z,89.34
2019-03-23T05:31:07.181Z,88.96
2019-03-23T05:32:07.112Z,88.96
2019-03-23T05:33:05.316Z,89.72
2019-03-23T05:34:07.114Z,89.91
2019-03-23T05:35:07.605Z,89.91
2019-03-23T05:36:05.852Z,89.91
2019-03-23T05:37:07.610Z,90.58
2019-03-23T05:38:06.182Z,90.20
2019-03-23T05:39:08.157Z,90.86
2019-03-23T05:40:06.565Z,90.67
2019-03-23T05:41:14.609Z,90.77
2019-03-23T05:42:06.918Z,89.91
2019-03-23T05:43:14.125Z,90.29
2019-03-23T05:44:07.327Z,90.58
2019-03-23T05:45:08.548Z,90.29
2019-03-23T05:46:07.753Z,90.20
2019-03-23T05:47:10.681Z,90.29
2019-03-23T05:48:08.133Z,90.20
2019-03-23T05:49:10.121Z,90.58
2019-03-23T05:50:10.138Z,90.77
2019-03-23T05:51:10.608Z,90.86
2019-03-23T05:52:08.812Z,90.58
2019-03-23T05:53:09.017Z,90.67
2019-03-23T05:54:09.217Z,90.77
2019-03-23T05:55:11.175Z,91.05
2019-03-23T05:56:11.613Z,90.58
2019-03-23T05:57:11.614Z,90.58
2019-03-23T05:58:09.953Z,90.48
2019-03-23T05:59:10.189Z,90.86
2019-03-23T06:00:12.159Z,90.58
2019-03-23T06:01:12.113Z,90.20
2019-03-23T06:02:12.485Z,90.39
2019-03-23T06:03:12.606Z,91.52
2019-03-23T06:04:11.085Z,91.05
2019-03-23T06:05:11.176Z,91.52
2019-03-23T06:06:17.381Z,92.00
2019-03-23T06:07:13.117Z,91.71
2019-03-23T06:08:11.679Z,91.52
2019-03-23T06:09:13.612Z,91.71
2019-03-23T06:10:13.607Z,92.19
2019-03-23T06:11:12.112Z,91.90
2019-03-23T06:12:12.211Z,92.23
2019-03-23T06:13:12.412Z,92.14
2019-03-23T06:14:12.627Z,92.52
2019-03-23T06:15:12.860Z,92.99
2019-03-23T06:16:14.630Z,93.08
2019-03-23T06:17:16.610Z,93.18
2019-03-23T06:18:15.141Z,92.99
2019-03-23T06:19:17.105Z,93.08
2019-03-23T06:20:15.137Z,92.99
2019-03-23T06:21:15.606Z,93.27
2019-03-23T06:22:15.605Z,93.37
2019-03-23T06:23:15.655Z,93.27
2019-03-23T06:24:15.186Z,93.37
2019-03-23T06:25:14.426Z,92.99
2019-03-23T06:26:14.609Z,92.99
2019-03-23T06:27:14.877Z,93.08
2019-03-23T06:28:16.617Z,92.90
2019-03-23T06:29:16.683Z,93.18
2019-03-23T06:30:15.201Z,93.23
2019-03-23T06:31:17.087Z,92.94
2019-03-23T06:32:15.600Z,94.27
2019-03-23T06:33:15.801Z,97.02
2019-03-23T06:34:17.070Z,98.97
2019-03-23T06:35:16.271Z,99.99
2019-03-23T06:36:18.107Z,99.99
2019-03-23T06:37:16.587Z,99.99
2019-03-23T06:38:16.751Z,99.99
2019-03-23T06:39:16.995Z,99.99
2019-03-23T06:40:17.080Z,99.99
2019-03-23T06:41:17.282Z,99.99
2019-03-23T06:42:21.115Z,99.99
2019-03-23T06:43:17.684Z,97.61
2019-03-23T06:44:18.446Z,95.46
2019-03-23T06:45:18.100Z,92.69
2019-03-23T06:46:18.320Z,90.79
2019-03-23T06:47:18.520Z,88.78
2019-03-23T06:48:25.587Z,87.87
2019-03-23T06:49:20.617Z,85.49
2019-03-23T06:50:19.137Z,85.15
2019-03-23T06:51:19.337Z,83.81
2019-03-23T06:52:23.116Z,81.76
2019-03-23T06:53:19.685Z,80.41
2019-03-23T06:54:19.900Z,78.07
2019-03-23T06:55:20.120Z,75.83
2019-03-23T06:56:20.328Z,74.63
2019-03-23T06:57:20.570Z,74.48
2019-03-23T06:58:20.664Z,72.94
2019-03-23T06:59:20.865Z,73.33
2019-03-23T07:00:21.068Z,72.75
2019-03-23T07:01:21.283Z,72.37
2019-03-23T07:02:23.133Z,71.42
2019-03-23T07:03:22.776Z,71.32
2019-03-23T07:04:23.615Z,71.47
2019-03-23T07:05:22.085Z,73.39
2019-03-23T07:06:25.121Z,73.83
2019-03-23T07:07:22.455Z,74.30
2019-03-23T07:08:31.598Z,75.96
2019-03-23T07:09:22.869Z,74.95
2019-03-23T07:10:23.081Z,73.90
2019-03-23T07:11:25.107Z,72.31
2019-03-23T07:12:23.446Z,71.64
2019-03-23T07:13:25.609Z,70.01
2019-03-23T07:14:27.615Z,69.64
2019-03-23T07:15:25.609Z,69.54
2019-03-23T07:16:24.939Z,69.15
2019-03-23T07:17:28.109Z,70.07
2019-03-23T07:18:26.113Z,70.17
2019-03-23T07:19:26.109Z,70.11
2019-03-23T07:20:25.767Z,70.97
2019-03-23T07:21:26.623Z,69.35
2019-03-23T07:22:26.075Z,68.52
2019-03-23T07:23:27.112Z,67.94
2019-03-23T07:24:26.243Z,66.93
2019-03-23T07:25:27.116Z,66.41
2019-03-23T07:26:27.614Z,66.54
2019-03-23T07:27:31.943Z,65.20
2019-03-23T07:28:28.112Z,65.01
2019-03-23T07:29:28.118Z,64.47
2019-03-23T07:30:26.462Z,64.79
2019-03-23T07:31:30.613Z,63.48
2019-03-23T07:32:26.823Z,62.23
2019-03-23T07:33:27.110Z,60.31
2019-03-23T07:34:34.121Z,60.99
2019-03-23T07:35:29.111Z,60.92
2019-03-23T07:36:31.111Z,60.05
2019-03-23T07:37:27.846Z,59.16
2019-03-23T07:38:31.675Z,60.35
2019-03-23T07:39:30.480Z,60.28
2019-03-23T07:40:30.116Z,62.26
2019-03-23T07:41:28.615Z,63.13
2019-03-23T07:42:30.619Z,63.19
2019-03-23T07:43:29.027Z,62.01
2019-03-23T07:44:33.718Z,62.52
2019-03-23T07:45:30.070Z,60.09
2019-03-23T07:46:29.435Z,60.79
2019-03-23T07:47:29.646Z,60.31
2019-03-23T07:48:31.714Z,61.60
2019-03-23T07:49:30.077Z,63.32
2019-03-23T07:50:30.362Z,63.60
2019-03-23T07:51:32.112Z,64.18
2019-03-23T07:52:32.635Z,64.28
2019-03-23T07:53:30.887Z,63.70
2019-03-23T07:54:32.634Z,63.73
2019-03-23T07:55:32.618Z,63.06
2019-03-23T07:56:34.068Z,61.15
2019-03-23T07:57:33.686Z,60.70
2019-03-23T07:58:34.122Z,60.60
2019-03-23T08:03:18.183Z,60.44
2019-03-23T08:03:38.202Z,60.57
2019-03-23T08:04:46.528Z,58.77
2019-03-23T08:07:47.210Z,56.76
2019-03-23T08:08:09.541Z,56.37
2019-03-23T08:09:19.819Z,56.92
2019-03-23T08:10:17.823Z,58.69
2019-03-23T08:11:16.354Z,59.96
2019-03-23T08:12:32.376Z,59.44
2019-03-23T08:13:12.559Z,58.29
2019-03-23T08:14:14.313Z,56.66
2019-03-23T08:15:14.075Z,57.07
2019-03-23T08:16:16.634Z,56.91
2019-03-23T08:17:17.586Z,54.82
2019-03-23T08:18:12.835Z,54.63
2019-03-23T08:19:13.483Z,54.53
2019-03-23T08:20:10.503Z,53.25
2019-03-23T08:21:22.892Z,54.43
2019-03-23T08:22:15.243Z,54.75
2019-03-23T08:23:18.527Z,55.26
2019-03-23T08:24:16.894Z,53.96
2019-03-23T08:25:11.020Z,53.96
2019-03-23T08:26:12.155Z,55.11
2019-03-23T08:27:14.767Z,55.56
2019-03-23T08:28:16.958Z,57.10
2019-03-23T08:29:36.486Z,55.49
2019-03-23T08:30:29.083Z,55.52
2019-03-23T08:31:35.169Z,55.04
2019-03-23T08:32:14.405Z,54.05
2019-03-23T08:33:14.543Z,54.43
2019-03-23T08:34:29.864Z,53.59
2019-03-23T08:35:19.866Z,53.91
2019-03-23T08:36:17.179Z,53.31
2019-03-23T08:37:29.280Z,53.23
2019-03-23T08:38:17.603Z,53.05
2019-03-23T08:39:18.738Z,53.69
2019-03-23T08:40:17.329Z,53.81
2019-03-23T08:41:18.852Z,53.94
2019-03-23T08:42:14.186Z,52.30
2019-03-23T08:43:14.329Z,52.61
2019-03-23T08:44:18.196Z,51.46
2019-03-23T08:45:17.261Z,51.48
2019-03-23T08:46:14.898Z,50.59
2019-03-23T08:47:17.333Z,51.31
2019-03-23T08:48:18.895Z,53.05
2019-03-23T08:49:18.191Z,54.03
2019-03-23T08:50:15.553Z,53.22
2019-03-23T08:51:21.490Z,51.99
2019-03-23T08:52:24.645Z,50.42
2019-03-23T08:53:19.766Z,49.82
2019-03-23T08:54:17.836Z,50.06
2019-03-23T08:55:21.877Z,52.47
2019-03-23T08:56:46.315Z,53.14
2019-03-23T08:57:41.424Z,52.69
2019-03-23T08:58:18.867Z,52.78
2019-03-23T08:59:19.079Z,51.43
2019-03-23T09:16:14.245Z,48.90
2019-03-23T09:17:02.307Z,48.30
2019-03-23T09:17:59.477Z,47.94
2019-03-23T09:19:02.168Z,48.93
2019-03-23T09:19:59.619Z,48.66
2019-03-23T09:21:01.008Z,47.81
2019-03-23T09:22:21.601Z,47.43
2019-03-23T09:23:00.097Z,46.66
2019-03-23T09:23:59.456Z,46.39
2019-03-23T09:24:59.501Z,45.42
2019-03-23T09:26:01.128Z,44.24
2019-03-23T09:27:03.645Z,45.52
2019-03-23T09:28:23.593Z,45.40
2019-03-23T09:29:02.143Z,44.92
2019-03-23T09:30:04.196Z,45.40
2019-03-23T09:31:02.170Z,46.97
2019-03-23T09:32:02.187Z,47.19
2019-03-23T09:33:00.870Z,46.26
2019-03-23T09:34:04.139Z,43.31
2019-03-23T09:35:01.337Z,42.34
2019-03-23T09:36:03.144Z,41.83
2019-03-23T09:37:03.644Z,42.59
2019-03-23T09:38:03.711Z,43.50
2019-03-23T09:39:03.707Z,42.24
2019-03-23T09:40:10.851Z,41.76
2019-03-23T09:41:06.144Z,40.81
2019-03-23T09:42:10.983Z,41.12
2019-03-23T09:43:03.847Z,40.42
2019-03-23T09:44:10.638Z,41.22
2019-03-23T09:45:03.240Z,40.33
2019-03-23T09:46:05.146Z,40.48
2019-03-23T09:47:05.280Z,42.13
2019-03-23T09:48:07.593Z,42.32
2019-03-23T09:49:05.709Z,41.64
2019-03-23T09:50:06.529Z,42.24
2019-03-23T09:51:07.608Z,41.76
2019-03-23T09:52:07.157Z,41.37
2019-03-23T09:53:06.621Z,41.49
2019-03-23T09:54:05.227Z,40.61
2019-03-23T09:55:06.112Z,40.03
2019-03-23T09:56:07.123Z,40.79
2019-03-23T09:57:06.358Z,42.19
2019-03-23T09:58:05.605Z,40.85
2019-03-23T09:59:08.663Z,40.29
2019-03-23T10:00:09.088Z,40.03
2019-03-23T10:01:08.145Z,39.82
2019-03-23T10:02:21.462Z,38.73
2019-03-23T10:03:09.282Z,39.61
2019-03-23T10:04:08.985Z,39.86
2019-03-23T10:05:09.648Z,39.94
2019-03-23T10:06:09.625Z,40.71
2019-03-23T10:07:11.190Z,40.61
2019-03-23T10:08:09.176Z,41.22
2019-03-23T10:09:10.611Z,41.53
2019-03-23T10:10:07.966Z,40.05
2019-03-23T10:11:08.180Z,40.52
2019-03-23T10:12:11.105Z,42.38
2019-03-23T10:13:11.107Z,41.20
2019-03-23T10:14:11.111Z,41.02
2019-03-23T10:15:11.003Z,41.41
2019-03-23T10:16:24.667Z,41.76
2019-03-23T10:17:13.155Z,41.80
2019-03-23T10:18:12.595Z,39.36
2019-03-23T10:19:11.144Z,39.94
2019-03-23T10:20:13.643Z,40.71
2019-03-23T10:21:11.665Z,44.48
2019-03-23T10:22:14.206Z,44.40
2019-03-23T10:23:24.115Z,44.31
2019-03-23T10:24:16.098Z,43.37
2019-03-23T10:25:16.656Z,42.66
2019-03-23T10:26:11.489Z,43.23
2019-03-23T10:27:11.910Z,43.29
2019-03-23T10:28:13.168Z,42.05
2019-03-23T10:29:13.624Z,41.47
2019-03-23T10:30:13.693Z,39.72
2019-03-23T10:31:16.601Z,40.33
2019-03-23T10:32:15.101Z,39.18
2019-03-23T10:33:18.160Z,38.12
2019-03-23T10:34:14.186Z,38.40
2019-03-23T10:35:35.724Z,38.02
2019-03-23T10:36:17.394Z,37.82
2019-03-23T10:37:17.143Z,39.62
2019-03-23T10:38:15.598Z,39.36
2019-03-23T10:39:40.099Z,38.19
2019-03-23T10:40:14.145Z,39.06
2019-03-23T10:41:16.601Z,40.07
2019-03-23T10:42:16.652Z,40.50
2019-03-23T10:43:16.150Z,39.57
2019-03-23T10:44:18.201Z,38.52
2019-03-23T10:45:44.358Z,39.65
2019-03-23T10:46:15.932Z,39.88
2019-03-23T10:47:18.133Z,39.90
2019-03-23T10:48:15.344Z,38.65
2019-03-23T10:49:20.626Z,36.79
2019-03-23T10:50:17.675Z,37.12
2019-03-23T10:51:32.632Z,36.81
2019-03-23T10:52:17.651Z,35.64
2019-03-23T10:53:23.088Z,35.86
2019-03-23T10:54:24.158Z,38.25
2019-03-23T10:55:23.148Z,37.18
2019-03-23T10:56:18.698Z,36.81
2019-03-23T10:57:18.658Z,38.42
2019-03-23T10:58:40.154Z,38.66
2019-03-23T10:59:40.146Z,39.94
2019-03-23T11:00:19.714Z,40.13
2019-03-23T11:01:25.042Z,40.26
2019-03-23T11:02:47.372Z,40.86
2019-03-23T11:03:21.113Z,40.73
2019-03-23T11:04:20.158Z,41.83
2019-03-23T11:05:22.655Z,40.79
2019-03-23T11:06:27.022Z,38.40
2019-03-23T11:07:21.132Z,38.21
2019-03-23T11:08:21.338Z,38.25
2019-03-23T11:09:21.164Z,37.60
2019-03-23T11:10:26.652Z,36.91
2019-03-23T11:11:21.652Z,38.23
2019-03-23T11:12:25.675Z,38.91
2019-03-23T11:13:22.187Z,39.74
2019-03-23T11:14:20.563Z,40.23
2019-03-23T11:15:21.795Z,39.62
2019-03-23T11:17:56.217Z,38.50
2019-03-23T11:18:54.672Z,40.03
2019-03-23T11:20:08.663Z,39.78
2019-03-23T11:20:55.689Z,40.58
2019-03-23T11:22:01.165Z,40.81
2019-03-23T11:22:53.778Z,41.31
2019-03-23T11:23:59.624Z,39.59
2019-03-23T11:24:55.274Z,38.17
2019-03-23T11:25:58.203Z,37.10
2019-03-23T11:26:58.208Z,37.12
2019-03-23T11:27:54.798Z,36.28
2019-03-23T11:28:57.719Z,35.29
2019-03-23T11:29:58.630Z,34.61
2019-03-23T11:31:00.300Z,35.27
2019-03-23T11:31:57.189Z,35.37
2019-03-23T11:32:56.784Z,36.67
2019-03-23T11:34:03.049Z,36.40
2019-03-23T11:34:57.874Z,35.52
2019-03-23T11:35:58.368Z,35.99
2019-03-23T11:37:22.247Z,35.80
2019-03-23T11:37:57.851Z,35.25
2019-03-23T11:38:58.629Z,36.81
2019-03-23T11:39:58.713Z,37.65
2019-03-23T11:40:59.222Z,37.74
2019-03-23T11:41:58.574Z,38.13
2019-03-23T11:43:22.719Z,38.54
2019-03-23T11:44:01.674Z,37.74
2019-03-23T11:44:59.725Z,38.67
2019-03-23T11:46:01.167Z,36.96
2019-03-23T11:47:00.192Z,35.83
2019-03-23T11:48:03.637Z,34.31
2019-03-23T11:49:00.007Z,33.83
2019-03-23T11:50:01.187Z,32.08
2019-03-23T11:51:06.858Z,31.41
2019-03-23T11:52:01.025Z,30.73
2019-03-23T11:53:23.677Z,30.44
2019-03-23T11:54:07.666Z,32.82
2019-03-23T11:55:01.681Z,32.24
2019-03-23T11:56:02.997Z,34.16
2019-03-23T11:57:01.163Z,33.98
2019-03-23T11:58:02.231Z,34.08
2019-03-23T11:59:02.682Z,33.98
2019-03-23T12:00:01.093Z,34.37
2019-03-23T12:01:09.220Z,35.06
2019-03-23T12:02:02.128Z,33.51
2019-03-23T12:03:07.178Z,32.71
2019-03-23T12:04:08.073Z,32.60
2019-03-23T12:05:01.939Z,34.38
2019-03-23T12:06:03.133Z,35.08
2019-03-23T12:07:06.182Z,36.22
2019-03-23T12:08:03.700Z,36.05
2019-03-23T12:09:10.677Z,34.53
2019-03-23T12:10:04.712Z,34.40
2019-03-23T12:11:03.405Z,35.57
2019-03-23T12:12:07.182Z,36.04
2019-03-23T12:13:05.168Z,38.12
2019-03-23T12:14:05.669Z,38.73
2019-03-23T12:15:15.793Z,40.09
2019-03-23T12:16:06.170Z,40.83
2019-03-23T12:17:08.214Z,41.04
2019-03-23T12:18:10.168Z,42.16
2019-03-23T12:19:11.674Z,41.60
2019-03-23T12:20:06.619Z,42.55
2019-03-23T12:21:08.150Z,42.25
2019-03-23T12:22:08.194Z,42.89
2019-03-23T12:23:07.179Z,43.45
2019-03-23T12:24:09.671Z,44.78
2019-03-23T12:25:07.623Z,45.36
2019-03-23T12:26:10.172Z,45.86
2019-03-23T12:27:07.147Z,45.11
2019-03-23T12:28:08.954Z,44.80
2019-03-23T12:29:10.682Z,45.57
2019-03-23T12:30:10.679Z,46.51
2019-03-23T12:31:11.163Z,46.34
2019-03-23T12:32:10.126Z,45.76
2019-03-23T12:33:23.671Z,44.34
2019-03-23T12:34:23.671Z,44.12
2019-03-23T12:35:11.615Z,45.31
2019-03-23T12:36:08.495Z,45.65
2019-03-23T12:37:11.158Z,46.64
2019-03-23T12:38:08.642Z,45.96
2019-03-23T12:39:12.120Z,46.59
2019-03-23T12:40:10.690Z,46.90
2019-03-23T12:41:22.516Z,45.65
2019-03-23T12:42:09.512Z,45.67
2019-03-23T12:43:10.627Z,44.43
2019-03-23T12:44:12.627Z,44.82
2019-03-23T12:45:11.673Z,44.53
2019-03-23T12:46:13.159Z,44.92
2019-03-23T12:47:14.932Z,46.33
2019-03-23T12:49:49.422Z,44.46
2019-03-23T12:50:45.016Z,44.24
2019-03-23T12:51:45.741Z,43.20
2019-03-23T12:52:45.754Z,44.32
2019-03-23T12:53:48.245Z,45.53
2019-03-23T12:54:47.983Z,45.75
2019-03-23T12:55:45.406Z,46.33
2019-03-23T12:56:44.053Z,46.51
2019-03-23T12:57:44.265Z,47.17
2019-03-23T12:58:46.739Z,47.19
2019-03-23T12:59:48.288Z,46.37
2019-03-23T13:00:44.876Z,45.72
2019-03-23T13:01:45.147Z,44.53
2019-03-23T13:02:47.298Z,44.84
2019-03-23T13:03:54.253Z,45.76
2019-03-23T13:05:01.301Z,44.50
2019-03-23T13:05:52.625Z,43.05
2019-03-23T13:07:02.760Z,43.40
2019-03-23T13:07:53.253Z,44.26
2019-03-23T13:08:49.247Z,44.92
2019-03-23T13:09:49.770Z,46.37
2019-03-23T13:10:48.295Z,47.05
2019-03-23T13:11:47.911Z,46.10
2019-03-23T13:12:50.035Z,45.81
2019-03-23T13:13:54.307Z,45.89
2019-03-23T13:15:03.292Z,46.15
2019-03-23T13:15:47.700Z,47.77
2019-03-23T13:16:47.929Z,47.75
2019-03-23T13:17:53.816Z,49.63